Time;durP1;ratioP1;P1;durP2;ratioP2;P2;SDS_P1;SDS_P2;PMS_P1;PMS_P2;Temp;Humidity;BMP_temperature;BMP_pressure;BME280_temperature;BME280_humidity;BME280_pressure;Samples;Min_cycle;Max_cycle;Signal;HPM_P1;HPM_P2
2023/05/07 00:00:48;;;;;;;3.30;2.47;;;11.90;99.90;;;;;;5021414;28;20128;-37
2023/05/07 00:03:13;;;;;;;3.20;2.72;;;11.90;99.90;;;;;;5022459;28;20108;-38
2023/05/07 00:05:39;;;;;;;2.95;2.60;;;12.00;99.90;;;;;;5026244;28;20443;-38
2023/05/07 00:08:05;;;;;;;5.95;2.60;;;11.90;99.90;;;;;;5025374;28;20029;-38
2023/05/07 00:10:30;;;;;;;2.85;2.53;;;11.60;99.90;;;;;;5020337;28;20037;-38
2023/05/07 00:12:56;;;;;;;4.00;3.00;;;11.50;99.90;;;;;;5018217;28;20033;-38
2023/05/07 00:15:21;;;;;;;5.20;3.22;;;11.40;99.90;;;;;;5022418;28;20486;-38
2023/05/07 00:17:47;;;;;;;5.53;3.20;;;11.40;99.90;;;;;;5019467;28;20025;-38
2023/05/07 00:20:13;;;;;;;6.28;3.50;;;11.30;99.90;;;;;;5019255;28;20411;-38
2023/05/07 00:22:38;;;;;;;3.97;3.58;;;11.20;99.90;;;;;;5019114;28;20105;-38
2023/05/07 00:25:05;;;;;;;6.40;3.20;;;11.30;99.90;;;;;;5021597;28;20033;-38
2023/05/07 00:27:30;;;;;;;4.20;3.63;;;11.40;99.90;;;;;;5021619;28;20108;-38
2023/05/07 00:29:56;;;;;;;4.25;3.13;;;11.50;99.90;;;;;;5019368;28;20537;-38
2023/05/07 00:32:22;;;;;;;3.85;3.40;;;11.60;99.90;;;;;;5020880;28;20034;-38
2023/05/07 00:34:47;;;;;;;3.60;3.05;;;11.50;99.90;;;;;;5021148;28;20040;-38
2023/05/07 00:37:13;;;;;;;3.97;3.17;;;11.60;99.90;;;;;;5019321;28;20091;-38
2023/05/07 00:39:38;;;;;;;3.63;3.22;;;11.60;99.90;;;;;;5022256;28;20117;-38
2023/05/07 00:42:04;;;;;;;4.82;3.47;;;11.60;99.90;;;;;;5019522;28;20086;-38
2023/05/07 00:44:30;;;;;;;4.25;3.60;;;11.60;99.90;;;;;;5018325;28;20108;-38
2023/05/07 00:46:56;;;;;;;4.18;3.58;;;11.60;99.90;;;;;;5020550;28;20394;-38
2023/05/07 00:49:26;;;;;;;9.57;4.35;;;11.60;99.90;;;;;;5022594;28;20156;-38
2023/05/07 00:51:52;;;;;;;5.63;4.00;;;11.60;99.90;;;;;;5021104;28;20494;-38
2023/05/07 00:54:18;;;;;;;5.43;3.97;;;11.50;99.90;;;;;;5020949;28;20036;-38
2023/05/07 00:56:44;;;;;;;5.97;3.90;;;11.40;99.90;;;;;;5019585;28;20040;-37
2023/05/07 00:59:10;;;;;;;4.65;3.60;;;11.50;99.90;;;;;;5019433;28;20060;-38
2023/05/07 01:01:36;;;;;;;5.57;3.70;;;11.40;99.90;;;;;;5018559;28;20096;-37
2023/05/07 01:04:02;;;;;;;4.15;3.65;;;11.40;99.90;;;;;;5021348;28;20478;-37
2023/05/07 01:06:30;;;;;;;7.40;4.20;;;11.40;99.90;;;;;;5018073;28;20736;-38
2023/05/07 01:08:57;;;;;;;3.10;2.80;;;11.40;99.90;;;;;;5017501;28;20053;-38
2023/05/07 01:11:23;;;;;;;2.60;2.40;;;11.20;99.90;;;;;;5019814;28;20302;-37
2023/05/07 01:13:50;;;;;;;2.85;2.65;;;10.90;99.90;;;;;;5019988;28;20493;-37
2023/05/07 01:16:16;;;;;;;2.95;2.75;;;10.70;99.90;;;;;;5025183;28;20117;-38
2023/05/07 01:18:42;;;;;;;2.83;2.58;;;10.90;99.90;;;;;;5020368;28;20108;-38
2023/05/07 01:21:10;;;;;;;2.90;2.70;;;10.90;99.90;;;;;;5016815;28;20514;-37
2023/05/07 01:23:36;;;;;;;3.22;2.92;;;11.00;99.90;;;;;;5021101;28;20037;-38
2023/05/07 01:26:02;;;;;;;4.03;2.90;;;11.00;99.90;;;;;;5015996;28;20030;-38
2023/05/07 01:28:27;;;;;;;4.10;3.22;;;11.10;99.90;;;;;;5014974;28;20029;-38
2023/05/07 01:30:59;;;;;;;4.03;3.03;;;11.10;99.90;;;;;;5017823;28;20387;-38
2023/05/07 01:33:28;;;;;;;4.68;2.95;;;11.20;99.90;;;;;;5018458;28;20072;-37
2023/05/07 01:35:54;;;;;;;4.00;3.15;;;11.20;99.90;;;;;;5019115;28;20033;-38
2023/05/07 01:38:22;;;;;;;3.30;3.00;;;11.10;99.90;;;;;;5017080;28;20084;-37
2023/05/07 01:40:48;;;;;;;3.38;3.03;;;11.10;99.90;;;;;;5020133;28;20053;-37
2023/05/07 01:43:14;;;;;;;3.10;2.85;;;11.10;99.90;;;;;;5016504;28;20034;-38
2023/05/07 01:45:40;;;;;;;3.45;3.13;;;11.10;99.90;;;;;;5020313;28;20123;-38
2023/05/07 01:48:08;;;;;;;3.38;3.03;;;11.20;99.90;;;;;;5021578;28;20056;-38
2023/05/07 01:50:34;;;;;;;3.83;3.25;;;11.20;99.90;;;;;;5021749;28;20034;-38
2023/05/07 01:53:02;;;;;;;4.00;3.60;;;11.20;99.90;;;;;;5018987;28;20076;-38
2023/05/07 01:55:27;;;;;;;3.33;3.05;;;11.20;99.90;;;;;;5019919;28;20025;-37
2023/05/07 01:57:53;;;;;;;3.80;3.40;;;11.20;99.90;;;;;;5016939;28;20043;-38
2023/05/07 02:00:19;;;;;;;3.33;3.03;;;11.10;99.90;;;;;;5017343;28;20025;-37
2023/05/07 02:02:45;;;;;;;4.15;2.80;;;11.10;99.90;;;;;;5018370;28;20045;-38
2023/05/07 02:05:10;;;;;;;10.05;3.42;;;11.10;99.90;;;;;;5012989;28;20848;-38
2023/05/07 02:07:36;;;;;;;4.88;3.13;;;11.10;99.90;;;;;;5018335;28;20727;-38
2023/05/07 02:10:02;;;;;;;5.68;3.15;;;11.10;99.90;;;;;;5016811;28;20087;-38
2023/05/07 02:12:28;;;;;;;3.22;2.40;;;10.90;99.90;;;;;;5016068;28;20065;-38
2023/05/07 02:14:54;;;;;;;5.68;3.47;;;10.90;99.90;;;;;;5017320;28;20565;-37
2023/05/07 02:17:19;;;;;;;9.05;3.30;;;10.90;99.90;;;;;;5020936;28;20438;-37
2023/05/07 02:19:45;;;;;;;8.82;3.70;;;10.90;99.90;;;;;;5019686;28;20522;-38
2023/05/07 02:22:11;;;;;;;6.15;3.63;;;10.90;99.90;;;;;;5022372;28;20032;-38
2023/05/07 02:24:36;;;;;;;15.95;3.65;;;10.80;99.90;;;;;;5019896;28;20476;-38
2023/05/07 02:27:03;;;;;;;12.20;4.30;;;10.80;99.90;;;;;;5021525;28;20044;-37
2023/05/07 02:29:29;;;;;;;4.30;3.42;;;10.80;99.90;;;;;;5021366;28;20034;-38
2023/05/07 02:31:55;;;;;;;6.45;3.25;;;10.80;99.90;;;;;;5020072;28;20116;-38
2023/05/07 02:34:21;;;;;;;6.82;3.35;;;10.80;99.90;;;;;;5016274;28;20116;-38
2023/05/07 02:36:46;;;;;;;9.60;2.97;;;10.80;99.90;;;;;;5017630;28;20573;-38
2023/05/07 02:39:13;;;;;;;12.60;3.85;;;10.70;99.90;;;;;;5021894;28;20021;-38
2023/05/07 02:41:39;;;;;;;8.15;3.75;;;10.70;99.90;;;;;;5015591;28;20033;-38
2023/05/07 02:44:04;;;;;;;12.18;4.13;;;10.70;99.90;;;;;;5015039;28;20036;-38
2023/05/07 02:46:30;;;;;;;4.40;3.70;;;10.60;99.90;;;;;;5024565;28;20029;-38
2023/05/07 02:48:56;;;;;;;6.72;3.67;;;10.70;99.90;;;;;;5015990;28;20214;-37
2023/05/07 02:51:22;;;;;;;6.30;3.15;;;10.60;99.90;;;;;;5019428;28;20056;-37
2023/05/07 02:53:48;;;;;;;8.30;4.13;;;10.70;99.90;;;;;;5017115;28;20124;-37
2023/05/07 02:56:14;;;;;;;8.27;3.65;;;10.60;99.90;;;;;;5019206;28;20549;-38
2023/05/07 02:58:40;;;;;;;9.63;3.55;;;10.50;99.90;;;;;;5019869;28;20377;-38
2023/05/07 03:01:06;;;;;;;5.40;3.72;;;10.50;99.90;;;;;;5021685;28;20037;-37
2023/05/07 03:03:32;;;;;;;5.55;3.38;;;10.50;99.90;;;;;;5021379;28;20034;-38
2023/05/07 03:05:57;;;;;;;4.60;3.50;;;10.40;99.90;;;;;;5025271;28;20045;-38
2023/05/07 03:08:23;;;;;;;5.07;3.20;;;10.30;99.90;;;;;;5022438;28;20033;-38
2023/05/07 03:10:49;;;;;;;3.80;3.40;;;10.30;99.90;;;;;;5022656;28;20112;-38
2023/05/07 03:13:15;;;;;;;4.88;4.10;;;10.30;99.90;;;;;;5022238;28;20124;-37
2023/05/07 03:15:40;;;;;;;5.20;3.53;;;10.40;99.90;;;;;;5020077;28;20652;-37
2023/05/07 03:18:06;;;;;;;4.60;3.80;;;10.40;99.90;;;;;;5020339;28;20487;-37
2023/05/07 03:20:32;;;;;;;5.65;4.00;;;10.40;99.90;;;;;;5018760;28;20083;-37
2023/05/07 03:22:57;;;;;;;4.72;4.25;;;10.40;99.90;;;;;;5020227;28;20037;-38
2023/05/07 03:25:23;;;;;;;3.88;3.58;;;10.50;99.90;;;;;;5026133;28;20033;-38
2023/05/07 03:27:49;;;;;;;4.57;3.75;;;10.10;99.90;;;;;;5024674;28;20037;-38
2023/05/07 03:30:14;;;;;;;3.85;3.08;;;9.90;99.90;;;;;;5021078;28;20033;-38
2023/05/07 03:32:40;;;;;;;4.45;3.28;;;9.80;99.90;;;;;;5022561;28;20037;-38
2023/05/07 03:35:07;;;;;;;3.72;3.08;;;9.90;99.90;;;;;;5021421;28;20568;-38
2023/05/07 03:37:32;;;;;;;3.95;3.55;;;10.00;99.90;;;;;;5018575;28;20022;-39
2023/05/07 03:39:58;;;;;;;2.63;2.45;;;10.00;99.90;;;;;;5023977;28;20060;-38
2023/05/07 03:42:24;;;;;;;3.10;2.80;;;10.00;99.90;;;;;;5021459;28;20029;-38
2023/05/07 03:44:49;;;;;;;3.00;2.80;;;9.90;99.90;;;;;;5024656;28;20490;-38
2023/05/07 03:47:15;;;;;;;3.40;3.10;;;10.00;99.90;;;;;;5022004;28;22328;-38
2023/05/07 03:49:41;;;;;;;3.58;3.28;;;10.00;99.90;;;;;;5022742;28;20026;-38
2023/05/07 03:52:06;;;;;;;3.17;2.88;;;10.00;99.90;;;;;;5020151;28;20034;-38
2023/05/07 03:54:32;;;;;;;3.60;2.95;;;10.10;99.90;;;;;;5022085;28;20474;-38
2023/05/07 03:56:58;;;;;;;2.92;2.72;;;10.00;99.90;;;;;;5019969;28;20502;-38
2023/05/07 03:59:24;;;;;;;7.00;3.40;;;10.00;99.90;;;;;;5023874;28;20134;-38
2023/05/07 04:01:49;;;;;;;4.80;3.30;;;10.00;99.90;;;;;;5018666;28;20033;-37
2023/05/07 04:04:15;;;;;;;5.82;3.55;;;10.00;99.90;;;;;;5018534;28;20141;-38
2023/05/07 04:06:41;;;;;;;5.03;3.20;;;10.00;99.90;;;;;;5022243;28;20025;-38
2023/05/07 04:09:07;;;;;;;3.88;3.42;;;10.10;99.90;;;;;;5024829;28;20037;-38
2023/05/07 04:11:33;;;;;;;4.35;3.20;;;10.20;99.90;;;;;;5019560;28;20757;-38
2023/05/07 04:13:58;;;;;;;4.18;3.55;;;10.10;99.90;;;;;;5016480;28;20133;-38
2023/05/07 04:16:24;;;;;;;13.25;7.20;;;10.10;99.90;;;;;;5020274;28;20394;-38
2023/05/07 04:18:50;;;;;;;8.23;5.80;;;10.10;99.90;;;;;;5022034;28;20033;-39
2023/05/07 04:21:17;;;;;;;14.65;8.20;;;10.20;99.90;;;;;;5017790;28;20018;-38
2023/05/07 04:23:43;;;;;;;11.27;6.17;;;10.20;99.90;;;;;;5027992;28;20030;-38
2023/05/07 04:26:09;;;;;;;7.00;5.00;;;10.10;99.90;;;;;;5020608;28;20056;-38
2023/05/07 04:28:36;;;;;;;5.22;3.80;;;10.10;99.90;;;;;;5017780;28;20032;-38
2023/05/07 04:31:01;;;;;;;3.60;3.13;;;10.10;99.90;;;;;;5027359;28;20671;-38
2023/05/07 04:33:27;;;;;;;3.33;3.03;;;10.10;99.90;;;;;;5021131;28;20049;-39
2023/05/07 04:35:53;;;;;;;4.05;3.00;;;10.10;99.90;;;;;;5017786;28;20423;-38
2023/05/07 04:38:19;;;;;;;2.65;2.45;;;10.00;99.90;;;;;;5017785;28;20017;-38
2023/05/07 04:40:44;;;;;;;1.98;1.85;;;10.00;99.90;;;;;;5021526;28;20033;-38
2023/05/07 04:43:10;;;;;;;2.58;1.90;;;9.90;99.90;;;;;;5017873;28;20025;-38
2023/05/07 04:45:36;;;;;;;1.98;1.50;;;9.80;99.90;;;;;;5021416;28;20120;-38
2023/05/07 04:48:02;;;;;;;2.60;2.30;;;9.70;99.90;;;;;;5019022;28;20068;-38
2023/05/07 04:50:28;;;;;;;2.08;1.98;;;9.70;99.90;;;;;;5018979;28;20596;-38
2023/05/07 04:52:54;;;;;;;2.33;2.13;;;9.70;99.90;;;;;;5016709;28;20057;-38
2023/05/07 04:55:20;;;;;;;2.40;2.22;;;9.80;99.90;;;;;;5019335;28;20069;-38
2023/05/07 04:57:45;;;;;;;3.08;2.25;;;9.90;99.90;;;;;;5015919;28;20025;-38
2023/05/07 05:00:14;;;;;;;5.32;2.60;;;9.90;99.90;;;;;;5017403;28;20068;-38
2023/05/07 05:02:40;;;;;;;3.22;2.95;;;10.00;99.90;;;;;;5019186;28;20087;-38
2023/05/07 05:05:06;;;;;;;3.83;3.40;;;10.10;99.90;;;;;;5034779;28;20492;-38
2023/05/07 05:07:32;;;;;;;3.90;3.50;;;10.10;99.90;;;;;;5020277;28;20037;-38
2023/05/07 05:09:58;;;;;;;4.53;3.78;;;10.20;99.90;;;;;;5016021;28;20030;-38
2023/05/07 05:12:23;;;;;;;4.60;3.40;;;10.30;99.90;;;;;;5013212;28;20033;-38
2023/05/07 05:14:51;;;;;;;7.15;4.13;;;10.40;99.90;;;;;;5018938;28;20515;-38
2023/05/07 05:17:17;;;;;;;5.18;4.10;;;10.50;99.90;;;;;;5020656;28;20064;-38
2023/05/07 05:19:43;;;;;;;4.95;3.92;;;10.60;99.90;;;;;;5017370;28;20057;-37
2023/05/07 05:22:08;;;;;;;5.80;4.43;;;10.70;99.90;;;;;;5019455;28;20053;-38
2023/05/07 05:24:34;;;;;;;6.10;4.80;;;10.80;99.90;;;;;;5014294;28;20025;-38
2023/05/07 05:27:01;;;;;;;6.63;4.38;;;10.90;99.90;;;;;;5020584;28;20033;-38
2023/05/07 05:29:27;;;;;;;5.43;4.47;;;11.10;99.90;;;;;;5016968;28;20033;-38
2023/05/07 05:31:53;;;;;;;5.80;4.35;;;11.20;99.90;;;;;;5015734;28;20041;-38
2023/05/07 05:34:19;;;;;;;4.65;4.10;;;11.40;99.90;;;;;;5018287;28;20067;-38
2023/05/07 05:36:45;;;;;;;5.82;5.05;;;11.50;99.90;;;;;;5022014;28;20033;-38
2023/05/07 05:39:10;;;;;;;6.68;5.35;;;11.70;99.90;;;;;;5018406;28;20036;-38
2023/05/07 05:41:36;;;;;;;8.10;5.10;;;11.90;99.90;;;;;;5011423;28;20557;-38
2023/05/07 05:44:02;;;;;;;6.82;6.13;;;11.90;99.90;;;;;;5015708;28;20045;-38
2023/05/07 05:46:27;;;;;;;7.90;5.88;;;12.20;99.90;;;;;;5022316;28;20148;-38
2023/05/07 05:48:53;;;;;;;7.20;5.75;;;12.20;99.90;;;;;;5020846;28;20033;-38
2023/05/07 05:51:19;;;;;;;7.57;5.53;;;12.40;99.90;;;;;;5018931;28;20109;-38
2023/05/07 05:53:44;;;;;;;7.22;5.60;;;12.60;99.90;;;;;;5014679;28;20029;-38
2023/05/07 05:56:10;;;;;;;7.20;5.40;;;12.80;99.90;;;;;;5019622;28;20036;-38
2023/05/07 05:58:36;;;;;;;7.68;5.88;;;12.80;99.90;;;;;;5019961;28;20025;-38
2023/05/07 06:01:02;;;;;;;6.88;5.90;;;12.90;99.90;;;;;;5012893;28;20033;-38
2023/05/07 06:03:28;;;;;;;7.47;5.70;;;13.10;99.90;;;;;;5016966;28;20017;-38
2023/05/07 06:05:53;;;;;;;7.15;5.55;;;13.30;99.90;;;;;;5013269;28;20037;-38
2023/05/07 06:08:19;;;;;;;8.15;6.90;;;13.40;99.90;;;;;;5012188;28;20053;-38
2023/05/07 06:10:45;;;;;;;7.15;6.45;;;13.50;99.90;;;;;;5017654;28;20159;-38
2023/05/07 06:13:11;;;;;;;9.20;6.47;;;13.60;99.90;;;;;;5014000;28;20034;-38
2023/05/07 06:15:37;;;;;;;7.93;6.50;;;13.80;99.90;;;;;;5016276;28;20049;-38
2023/05/07 06:18:02;;;;;;;7.47;6.13;;;13.90;99.90;;;;;;5017361;28;20562;-38
2023/05/07 06:20:28;;;;;;;7.68;6.55;;;14.10;99.90;;;;;;5017562;28;20113;-38
2023/05/07 06:22:54;;;;;;;8.90;6.68;;;14.30;99.90;;;;;;5015220;28;20079;-38
2023/05/07 06:25:19;;;;;;;8.18;6.25;;;14.40;99.90;;;;;;5011897;28;20438;-38
2023/05/07 06:27:45;;;;;;;7.30;5.68;;;14.60;99.90;;;;;;5021326;28;20029;-38
2023/05/07 06:30:11;;;;;;;7.47;6.15;;;14.70;99.90;;;;;;5019691;28;20029;-38
2023/05/07 06:32:37;;;;;;;8.68;5.88;;;14.80;99.90;;;;;;5020977;28;20037;-38
2023/05/07 06:35:03;;;;;;;6.80;5.80;;;14.90;99.90;;;;;;5025054;28;20026;-38
2023/05/07 06:37:28;;;;;;;7.22;5.70;;;15.00;99.90;;;;;;5021574;28;20112;-38
2023/05/07 06:39:54;;;;;;;6.32;5.60;;;15.10;99.90;;;;;;5021985;28;20037;-37
2023/05/07 06:42:19;;;;;;;6.07;5.47;;;15.10;99.90;;;;;;5023263;28;20029;-37
2023/05/07 06:44:45;;;;;;;6.78;5.68;;;15.30;99.90;;;;;;5023366;28;20034;-37
2023/05/07 06:47:11;;;;;;;6.78;5.93;;;15.30;99.90;;;;;;5021998;28;20478;-37
2023/05/07 06:49:36;;;;;;;7.82;6.00;;;15.40;99.90;;;;;;5024786;28;20033;-38
2023/05/07 06:52:02;;;;;;;7.38;5.75;;;15.50;99.90;;;;;;5026526;28;20514;-37
2023/05/07 06:54:28;;;;;;;7.20;5.70;;;15.60;99.90;;;;;;5026132;28;20041;-37
2023/05/07 06:56:54;;;;;;;6.85;5.55;;;15.70;99.90;;;;;;5024252;28;20021;-37
2023/05/07 06:59:20;;;;;;;6.03;5.45;;;15.60;99.90;;;;;;5026678;28;20017;-37
2023/05/07 07:01:45;;;;;;;6.53;5.82;;;15.60;99.90;;;;;;5021669;28;20068;-37
2023/05/07 07:04:11;;;;;;;6.47;5.88;;;15.70;99.90;;;;;;5021237;28;20025;-37
2023/05/07 07:06:36;;;;;;;6.80;5.75;;;15.80;99.90;;;;;;5024000;28;20017;-37
2023/05/07 07:09:02;;;;;;;7.13;6.22;;;15.90;99.90;;;;;;5021307;28;20021;-37
2023/05/07 07:11:28;;;;;;;7.55;5.93;;;15.90;99.90;;;;;;5022791;28;20037;-37
2023/05/07 07:13:54;;;;;;;6.57;5.97;;;16.00;99.90;;;;;;5019420;28;20042;-37
2023/05/07 07:16:21;;;;;;;6.70;5.57;;;16.00;99.90;;;;;;5024086;28;20041;-36
2023/05/07 07:18:46;;;;;;;9.20;6.35;;;16.20;99.90;;;;;;5026743;28;20025;-36
2023/05/07 07:21:12;;;;;;;7.05;6.35;;;16.20;99.90;;;;;;5018641;28;20090;-36
2023/05/07 07:23:37;;;;;;;9.00;6.00;;;16.40;99.90;;;;;;5020332;28;20709;-37
2023/05/07 07:26:03;;;;;;;7.00;6.28;;;16.50;99.90;;;;;;5025035;28;20144;-37
2023/05/07 07:28:29;;;;;;;7.53;5.82;;;16.50;99.90;;;;;;5021763;28;20045;-39
2023/05/07 07:30:54;;;;;;;6.13;5.50;;;16.70;99.90;;;;;;5020679;28;20050;-37
2023/05/07 07:33:20;;;;;;;7.25;6.00;;;16.80;99.90;;;;;;5022569;28;20033;-37
2023/05/07 07:35:45;;;;;;;6.05;5.03;;;16.90;99.90;;;;;;5024464;28;20503;-38
2023/05/07 07:38:11;;;;;;;7.75;5.68;;;17.00;99.90;;;;;;5016876;28;20465;-38
2023/05/07 07:40:37;;;;;;;6.88;5.57;;;17.10;99.90;;;;;;5027270;28;20025;-39
2023/05/07 07:43:02;;;;;;;6.68;5.28;;;17.20;99.90;;;;;;5021252;28;20422;-38
2023/05/07 07:45:28;;;;;;;6.18;4.95;;;17.40;99.90;;;;;;5020547;28;20045;-38
2023/05/07 07:47:54;;;;;;;6.95;5.93;;;17.30;99.90;;;;;;5025201;28;20025;-38
2023/05/07 07:50:20;;;;;;;7.32;5.72;;;17.40;99.90;;;;;;5024537;28;20034;-38
2023/05/07 07:52:46;;;;;;;6.25;5.25;;;17.40;99.90;;;;;;5022015;28;20033;-38
2023/05/07 07:55:12;;;;;;;6.43;5.63;;;17.60;99.90;;;;;;5021001;28;20032;-37
2023/05/07 07:57:38;;;;;;;6.90;5.25;;;17.70;99.90;;;;;;5022762;28;20017;-38
2023/05/07 08:00:05;;;;;;;5.93;5.20;;;17.90;99.90;;;;;;5024874;28;20770;-38
2023/05/07 08:02:31;;;;;;;6.43;5.57;;;18.10;99.90;;;;;;5021566;28;20033;-38
2023/05/07 08:04:56;;;;;;;5.93;5.15;;;18.20;99.90;;;;;;5022898;28;20036;-38
2023/05/07 08:07:22;;;;;;;6.28;5.32;;;18.30;99.90;;;;;;5032519;28;20033;-38
2023/05/07 08:09:48;;;;;;;5.72;4.97;;;18.60;99.90;;;;;;5022758;28;20025;-38
2023/05/07 08:12:14;;;;;;;6.15;5.03;;;18.60;99.90;;;;;;5024337;28;20100;-38
2023/05/07 08:14:40;;;;;;;7.47;4.80;;;18.70;99.90;;;;;;5022633;28;20056;-38
2023/05/07 08:17:06;;;;;;;4.90;4.40;;;18.80;99.90;;;;;;5022287;28;20080;-37
2023/05/07 08:19:32;;;;;;;5.18;4.60;;;18.90;99.90;;;;;;5018858;28;20041;-38
2023/05/07 08:21:57;;;;;;;4.25;3.90;;;19.00;99.90;;;;;;5024238;28;20030;-38
2023/05/07 08:24:23;;;;;;;7.35;5.10;;;19.20;99.90;;;;;;5023439;28;20027;-38
2023/05/07 08:26:49;;;;;;;4.60;4.20;;;19.30;99.90;;;;;;5026088;28;20038;-38
2023/05/07 08:29:15;;;;;;;5.30;4.80;;;19.30;99.90;;;;;;5025607;28;20041;-38
2023/05/07 08:31:41;;;;;;;5.07;4.50;;;19.30;99.90;;;;;;5020931;28;20033;-38
2023/05/07 08:34:07;;;;;;;4.80;4.32;;;19.40;99.90;;;;;;5025404;28;20052;-39
2023/05/07 08:36:33;;;;;;;5.47;4.68;;;19.40;99.90;;;;;;5033384;28;20026;-38
2023/05/07 08:38:59;;;;;;;6.43;4.32;;;19.40;99.90;;;;;;5035372;28;20030;-38
2023/05/07 08:41:25;;;;;;;6.28;4.28;;;19.50;99.90;;;;;;5025339;28;20033;-38
2023/05/07 08:43:51;;;;;;;4.38;3.97;;;19.70;99.90;;;;;;5019416;28;20032;-38
2023/05/07 08:46:19;;;;;;;5.68;3.83;;;19.80;99.90;;;;;;5020213;28;20120;-38
2023/05/07 08:48:47;;;;;;;5.07;4.13;;;19.90;99.90;;;;;;5025464;28;20553;-38
2023/05/07 08:51:15;;;;;;;4.82;3.90;;;20.10;99.90;;;;;;5021304;28;20038;-39
2023/05/07 08:53:42;;;;;;;7.03;4.07;;;20.10;99.90;;;;;;5022570;28;20083;-38
2023/05/07 08:56:09;;;;;;;4.28;3.88;;;20.00;99.90;;;;;;5021197;28;20495;-38
2023/05/07 08:58:35;;;;;;;4.30;3.90;;;20.20;99.90;;;;;;5024299;28;20013;-38
2023/05/07 09:01:08;;;;;;;4.43;3.92;;;20.30;99.90;;;;;;5013378;28;20279;-38
2023/05/07 09:03:34;;;;;;;7.25;4.47;;;20.10;99.90;;;;;;5024551;28;20528;-38
2023/05/07 09:06:00;;;;;;;5.43;4.43;;;20.00;99.90;;;;;;5023489;28;20656;-38
2023/05/07 09:08:29;;;;;;;5.18;4.55;;;20.10;99.90;;;;;;5025603;28;20033;-38
2023/05/07 09:10:55;;;;;;;4.60;4.20;;;20.20;99.90;;;;;;5021213;28;20051;-38
2023/05/07 09:13:21;;;;;;;4.00;3.47;;;20.20;99.90;;;;;;5020372;28;20029;-37
2023/05/07 09:15:49;;;;;;;5.20;3.75;;;20.30;99.90;;;;;;5023439;28;20048;-38
2023/05/07 09:18:15;;;;;;;5.78;4.28;;;20.40;99.90;;;;;;5023010;28;20036;-39
2023/05/07 09:20:41;;;;;;;4.60;3.67;;;20.40;99.90;;;;;;5020758;28;20030;-38
2023/05/07 09:23:07;;;;;;;5.80;3.95;;;20.50;99.90;;;;;;5024114;28;20104;-38
2023/05/07 09:25:34;;;;;;;3.47;3.17;;;20.50;99.90;;;;;;5021860;28;20029;-38
2023/05/07 09:28:01;;;;;;;5.63;3.10;;;20.50;99.90;;;;;;5019884;28;20022;-38
2023/05/07 09:30:34;;;;;;;5.47;3.58;;;20.30;99.90;;;;;;5023910;28;20026;-38
2023/05/07 09:33:03;;;;;;;5.53;3.30;;;20.40;99.90;;;;;;5016234;28;20041;-37
2023/05/07 09:35:29;;;;;;;3.33;3.03;;;20.50;99.90;;;;;;5024519;28;20390;-38
2023/05/07 09:38:00;;;;;;;3.88;3.20;;;20.50;99.90;;;;;;5018450;28;20034;-38
2023/05/07 09:40:29;;;;;;;2.70;2.50;;;20.50;99.90;;;;;;5038888;28;20530;-38
2023/05/07 09:42:55;;;;;;;4.90;2.90;;;20.60;99.90;;;;;;5019938;28;20062;-38
2023/05/07 09:45:31;;;;;;;2.33;2.13;;;20.80;99.90;;;;;;5024499;28;20056;-38
2023/05/07 09:47:58;;;;;;;2.47;2.28;;;20.70;99.90;;;;;;5021601;28;20037;-38
2023/05/07 09:50:28;;;;;;;3.83;3.03;;;20.80;99.90;;;;;;5023157;28;20037;-38
2023/05/07 09:52:55;;;;;;;2.58;2.38;;;20.80;99.90;;;;;;5021002;28;20033;-38
2023/05/07 09:55:22;;;;;;;2.53;2.20;;;20.90;99.90;;;;;;5025118;28;20030;-38
2023/05/07 09:57:52;;;;;;;2.30;1.83;;;20.90;99.90;;;;;;5023140;28;20029;-38
2023/05/07 10:00:21;;;;;;;3.03;2.45;;;21.00;99.90;;;;;;5018436;28;20029;-38
2023/05/07 10:04:50;;;;;;;2.65;2.00;;;21.10;99.90;;;;;;5054145;28;20411;-38
2023/05/07 10:07:17;;;;;;;3.85;2.08;;;21.00;99.90;;;;;;5047195;28;20030;-38
2023/05/07 10:09:44;;;;;;;2.05;1.92;;;21.10;99.90;;;;;;5042243;28;20025;-38
2023/05/07 10:12:10;;;;;;;2.47;1.97;;;21.10;99.90;;;;;;5044604;28;20106;-38
2023/05/07 10:14:36;;;;;;;1.77;1.67;;;21.20;99.90;;;;;;5036805;28;20053;-39
2023/05/07 10:17:02;;;;;;;1.80;1.63;;;21.30;99.90;;;;;;5039111;28;20033;-38
2023/05/07 10:19:29;;;;;;;3.00;1.65;;;21.30;99.90;;;;;;5041414;28;20033;-37
2023/05/07 10:21:59;;;;;;;2.63;1.70;;;21.40;99.90;;;;;;5039392;28;20245;-37
2023/05/07 10:24:39;;;;;;;1.52;1.42;;;21.50;99.90;;;;;;5047678;28;20230;-38
2023/05/07 10:27:10;;;;;;;1.58;1.48;;;21.70;99.90;;;;;;5044785;28;20021;-36
2023/05/07 10:29:59;;;;;;;3.47;2.40;;;21.90;99.90;;;;;;5040661;28;20036;-37
2023/05/07 10:32:25;;;;;;;1.60;1.50;;;21.80;99.90;;;;;;5038858;28;20478;-38
2023/05/07 10:34:55;;;;;;;1.80;1.70;;;21.10;99.90;;;;;;5049977;28;20040;-38
2023/05/07 10:37:21;;;;;;;2.15;1.40;;;21.10;99.90;;;;;;5046306;28;20036;-37
2023/05/07 10:39:47;;;;;;;1.73;1.40;;;21.20;99.90;;;;;;5049848;28;20505;-38
2023/05/07 10:42:14;;;;;;;1.70;1.60;;;21.00;99.90;;;;;;5044561;28;20029;-37
2023/05/07 10:44:40;;;;;;;3.33;2.10;;;20.80;99.90;;;;;;5052257;28;20040;-38
2023/05/07 10:47:11;;;;;;;2.05;1.40;;;20.80;99.90;;;;;;5042250;28;20099;-38
2023/05/07 10:49:42;;;;;;;1.40;1.30;;;21.10;99.90;;;;;;5048993;28;20159;-37
2023/05/07 10:52:15;;;;;;;6.57;1.77;;;21.30;99.90;;;;;;5047834;28;20033;-37
2023/05/07 10:54:42;;;;;;;2.13;1.30;;;21.60;99.90;;;;;;5047343;28;20044;-37
2023/05/07 10:57:35;;;;;;;3.20;2.13;;;21.70;99.90;;;;;;5040503;28;20037;-37
2023/05/07 11:00:21;;;;;;;1.42;1.33;;;22.10;99.90;;;;;;5048702;28;20025;-37
2023/05/07 11:02:59;;;;;;;3.40;1.60;;;22.10;99.90;;;;;;5042613;28;20072;-38
2023/05/07 11:05:25;;;;;;;1.95;1.20;;;21.90;99.90;;;;;;5049052;28;20439;-37
2023/05/07 11:08:01;;;;;;;1.20;1.20;;;21.90;99.90;;;;;;5048012;28;20029;-37
2023/05/07 11:10:53;;;;;;;2.85;1.50;;;21.80;99.90;;;;;;5053241;28;20186;-37
2023/05/07 11:13:49;;;;;;;2.20;1.60;;;21.80;99.90;;;;;;5044510;28;20082;-38
2023/05/07 11:16:25;;;;;;;1.40;1.30;;;21.70;99.90;;;;;;5025237;28;21980;-38
2023/05/07 11:18:53;;;;;;;1.60;1.50;;;21.80;99.90;;;;;;5021739;28;20542;-38
2023/05/07 11:21:40;;;;;;;2.55;1.45;;;22.00;99.90;;;;;;5021586;28;20026;-38
2023/05/07 11:24:07;;;;;;;2.42;1.50;;;21.90;99.90;;;;;;4992613;28;20037;-38
2023/05/07 11:26:53;;;;;;;1.10;1.10;;;22.00;99.90;;;;;;5020830;28;20402;-38
2023/05/07 11:29:21;;;;;;;1.35;1.23;;;22.10;99.90;;;;;;5030501;28;20050;-38
2023/05/07 11:31:51;;;;;;;1.40;1.30;;;22.30;99.90;;;;;;5025218;28;20052;-38
2023/05/07 11:34:26;;;;;;;1.13;1.10;;;22.10;99.90;;;;;;5036660;28;20036;-38
2023/05/07 11:36:52;;;;;;;2.83;1.30;;;21.80;99.90;;;;;;5028840;28;20496;-38
2023/05/07 11:39:44;;;;;;;2.40;1.40;;;21.80;99.90;;;;;;5030023;28;20100;-38
2023/05/07 11:42:37;;;;;;;1.45;1.35;;;21.90;99.90;;;;;;5032320;28;20034;-38
2023/05/07 11:45:03;;;;;;;1.30;1.20;;;22.20;99.90;;;;;;5025726;28;20140;-38
2023/05/07 11:47:33;;;;;;;1.92;1.40;;;22.10;99.90;;;;;;5030076;28;20018;-39
2023/05/07 11:50:04;;;;;;;1.40;1.30;;;22.30;99.90;;;;;;5031378;28;20040;-38
2023/05/07 11:52:30;;;;;;;1.27;1.25;;;22.20;99.90;;;;;;5035729;28;20029;-38
2023/05/07 11:54:57;;;;;;;1.88;1.77;;;22.30;99.90;;;;;;5035921;28;20072;-38
2023/05/07 11:57:24;;;;;;;1.50;1.38;;;22.20;99.90;;;;;;5029009;28;20033;-38
2023/05/07 11:59:54;;;;;;;2.10;1.50;;;22.00;99.90;;;;;;5030080;28;20048;-39
2023/05/07 12:02:19;;;;;;;2.90;1.73;;;21.60;99.90;;;;;;5031885;28;20053;-38
2023/05/07 12:04:45;;;;;;;3.67;1.60;;;21.70;99.90;;;;;;5030043;28;20469;-37
2023/05/07 12:07:15;;;;;;;2.00;1.70;;;21.80;99.90;;;;;;5033118;28;20064;-37
2023/05/07 12:09:44;;;;;;;1.95;1.50;;;22.20;99.90;;;;;;5031642;28;20037;-37
2023/05/07 12:12:10;;;;;;;2.88;1.50;;;22.50;99.90;;;;;;5026434;28;20029;-37
2023/05/07 12:14:43;;;;;;;1.90;1.65;;;22.70;99.90;;;;;;5030301;28;20110;-37
2023/05/07 12:17:13;;;;;;;2.45;1.80;;;22.70;99.90;;;;;;5031228;28;20034;-37
2023/05/07 12:19:41;;;;;;;2.53;1.63;;;22.70;99.90;;;;;;5033088;28;20052;-38
2023/05/07 12:22:10;;;;;;;1.80;1.60;;;22.50;99.90;;;;;;5025462;28;20111;-38
2023/05/07 12:24:47;;;;;;;1.67;1.52;;;22.40;99.90;;;;;;5028219;28;20453;-36
2023/05/07 12:27:16;;;;;;;2.90;1.48;;;22.20;99.90;;;;;;5031731;28;20037;-37
2023/05/07 12:29:49;;;;;;;1.77;1.40;;;22.20;99.90;;;;;;5036366;28;20040;-37
2023/05/07 12:32:20;;;;;;;1.70;1.60;;;22.30;99.90;;;;;;5024130;28;20064;-46
2023/05/07 12:34:46;;;;;;;1.60;1.50;;;22.40;99.90;;;;;;5007352;28;20030;-37
2023/05/07 12:37:12;;;;;;;1.88;1.67;;;22.60;99.90;;;;;;5007888;28;20049;-37
2023/05/07 12:39:43;;;;;;;2.67;1.73;;;22.50;99.90;;;;;;5012175;28;20037;-37
2023/05/07 12:42:15;;;;;;;2.58;1.70;;;22.60;99.90;;;;;;5008865;28;20030;-37
2023/05/07 12:44:41;;;;;;;1.90;1.65;;;22.50;99.90;;;;;;4999805;28;20033;-38
2023/05/07 12:47:06;;;;;;;2.03;1.70;;;22.30;99.90;;;;;;5014684;28;20032;-37
2023/05/07 12:49:36;;;;;;;2.40;1.70;;;22.30;99.90;;;;;;5019495;28;20508;-37